Time;durP1;ratioP1;P1;durP2;ratioP2;P2;SDS_P1;SDS_P2;PMS_P1;PMS_P2;Temp;Humidity;BMP_temperature;BMP_pressure;BME280_temperature;BME280_humidity;BME280_pressure;Samples;Min_cycle;Max_cycle;Signal;HPM_P1;HPM_P2
2021/04/10 00:00:54;;;;;;;32.83;14.82;;;;;;;7.41;71.46;101139.34;5133549;27;20027;-63
2021/04/10 00:03:20;;;;;;;33.03;15.32;;;;;;;7.37;71.33;101137.50;5134342;27;20023;-63
2021/04/10 00:05:45;;;;;;;30.40;15.43;;;;;;;7.34;71.97;101133.06;5133543;27;20034;-62
2021/04/10 00:08:11;;;;;;;33.10;15.23;;;;;;;7.32;72.50;101130.41;5133538;27;20068;-65
2021/04/10 00:10:36;;;;;;;31.92;14.48;;;;;;;7.31;72.44;101135.59;5133780;27;20019;-63
2021/04/10 00:13:02;;;;;;;34.47;16.63;;;;;;;7.28;73.46;101133.81;5132948;27;20058;-63
2021/04/10 00:15:29;;;;;;;32.17;15.18;;;;;;;7.20;73.59;101139.75;5133226;27;20030;-63
2021/04/10 00:17:55;;;;;;;32.60;15.45;;;;;;;7.18;74.19;101133.56;5133939;27;20034;-63
2021/04/10 00:20:21;;;;;;;32.92;16.05;;;;;;;7.16;74.66;101133.53;5133654;27;20094;-63
2021/04/10 00:22:47;;;;;;;32.95;16.10;;;;;;;7.13;75.02;101128.22;5133412;27;20061;-63
2021/04/10 00:25:14;;;;;;;32.67;16.35;;;;;;;7.15;75.04;101142.28;5132865;27;20035;-63
2021/04/10 00:27:40;;;;;;;38.20;17.27;;;;;;;7.15;75.06;101145.81;5132779;27;20057;-63
2021/04/10 00:30:11;;;;;;;34.58;16.48;;;;;;;7.18;74.94;101144.09;5133229;27;20434;-63
2021/04/10 00:32:36;;;;;;;36.90;17.25;;;;;;;7.11;74.92;101151.84;5131893;27;20124;-63
2021/04/10 00:35:02;;;;;;;38.03;17.38;;;;;;;7.12;75.16;101145.72;5131808;27;20043;-64
2021/04/10 00:37:27;;;;;;;36.20;17.00;;;;;;;7.07;75.46;101151.72;5133214;27;20031;-65
2021/04/10 00:39:55;;;;;;;36.58;17.42;;;;;;;7.04;75.23;101146.41;5130787;27;20031;-63
2021/04/10 00:42:20;;;;;;;35.75;17.05;;;;;;;7.04;75.79;101146.41;5132588;27;20114;-63
2021/04/10 00:44:45;;;;;;;35.22;17.40;;;;;;;6.99;75.83;101146.31;5132832;27;20450;-64
2021/04/10 00:47:11;;;;;;;36.50;17.23;;;;;;;6.93;75.73;101141.78;5132190;27;20415;-63
2021/04/10 00:49:36;;;;;;;37.20;17.83;;;;;;;6.95;75.91;101150.59;5132634;27;20027;-63
2021/04/10 00:52:03;;;;;;;38.47;16.83;;;;;;;6.93;75.87;101148.75;5132629;27;20031;-65
2021/04/10 00:54:29;;;;;;;35.33;17.10;;;;;;;6.91;76.40;101148.72;5132351;27;20031;-63
2021/04/10 00:56:54;;;;;;;38.47;16.77;;;;;;;6.95;76.04;101144.44;5132312;27;20243;-63
2021/04/10 00:59:20;;;;;;;36.22;17.90;;;;;;;6.91;75.96;101147.84;5132765;27;20023;-64
2021/04/10 01:01:46;;;;;;;37.90;18.05;;;;;;;6.77;76.63;101144.88;5133024;27;20365;-63
2021/04/10 01:04:12;;;;;;;38.25;18.25;;;;;;;6.76;76.63;101145.75;5132682;27;20027;-63
2021/04/10 01:06:37;;;;;;;39.50;17.90;;;;;;;6.78;77.00;101141.41;5132185;27;20023;-63
2021/04/10 01:09:03;;;;;;;37.30;18.20;;;;;;;6.69;77.00;101139.44;5131840;27;20042;-62
2021/04/10 01:11:57;;;;;;;37.83;17.20;;;;;;;6.71;75.99;101142.97;5132123;27;20015;-63
2021/04/10 01:14:34;;;;;;;37.33;17.40;;;;;;;6.60;77.57;101136.59;5132439;27;20045;-63
2021/04/10 01:17:06;;;;;;;40.08;17.50;;;;;;;6.59;77.73;101133.06;5132043;27;20023;-63
2021/04/10 01:20:09;;;;;;;36.90;17.30;;;;;;;6.61;76.65;101133.09;5130881;27;20466;-63
2021/04/10 01:22:50;;;;;;;37.03;16.52;;;;;;;6.55;77.99;101139.09;5131742;27;20521;-63
2021/04/10 01:25:40;;;;;;;35.38;16.10;;;;;;;6.58;76.77;101138.25;5129709;27;20076;-63
2021/04/10 01:28:20;;;;;;;34.78;15.63;;;;;;;6.47;78.47;101126.63;5131651;27;20041;-63
2021/04/10 01:30:46;;;;;;;34.25;14.70;;;;;;;6.42;78.35;101126.47;5131413;27;20516;-64
2021/04/10 01:33:16;;;;;;;32.55;14.07;;;;;;;6.37;78.22;101118.50;5132535;27;20066;-63
2021/04/10 01:35:50;;;;;;;34.80;13.82;;;;;;;6.35;77.91;101129.78;5130926;27;20043;-63
2021/04/10 01:38:21;;;;;;;32.65;13.60;;;;;;;6.24;78.81;101129.53;5128813;28;20026;-63
2021/04/10 01:40:51;;;;;;;33.42;13.52;;;;;;;6.26;78.32;101136.59;5132529;27;20438;-63
2021/04/10 01:43:17;;;;;;;32.88;12.75;;;;;;;6.27;78.54;101135.72;5132451;27;20060;-63
2021/04/10 01:45:43;;;;;;;35.55;13.20;;;;;;;6.23;78.71;101138.25;5132310;27;20439;-64
2021/04/10 01:48:11;;;;;;;33.40;12.80;;;;;;;6.18;78.52;101139.88;5130582;27;20055;-63
2021/04/10 01:50:38;;;;;;;32.92;12.35;;;;;;;6.15;78.95;101148.53;5131804;27;20023;-63
2021/04/10 01:53:05;;;;;;;31.98;12.30;;;;;;;6.15;78.76;101147.66;5132081;27;20501;-63
2021/04/10 01:55:31;;;;;;;33.17;13.60;;;;;;;6.15;78.88;101138.03;5132611;27;20102;-63
2021/04/10 01:57:58;;;;;;;31.35;12.27;;;;;;;6.13;78.95;101144.09;5132549;27;20027;-63
2021/04/10 02:00:32;;;;;;;31.50;12.00;;;;;;;6.08;78.70;101147.47;5135140;27;20031;-63
2021/04/10 02:02:57;;;;;;;30.63;11.75;;;;;;;6.05;79.09;101146.50;5133934;27;20397;-63
2021/04/10 02:05:26;;;;;;;33.08;12.27;;;;;;;6.02;79.22;101149.94;5136076;27;20024;-62
2021/04/10 02:07:52;;;;;;;31.30;11.68;;;;;;;6.01;79.09;101145.53;5135842;27;20372;-63
2021/04/10 02:10:24;;;;;;;31.30;11.65;;;;;;;6.00;79.06;101149.03;5135752;27;20105;-63
2021/04/10 02:12:52;;;;;;;30.80;11.30;;;;;;;5.97;79.21;101143.69;5135893;27;20099;-62
2021/04/10 02:15:18;;;;;;;31.88;10.68;;;;;;;5.98;78.90;101152.44;5135345;27;20540;-63
2021/04/10 02:17:44;;;;;;;28.50;10.23;;;;;;;5.96;78.78;101156.72;5135783;27;20027;-62
2021/04/10 02:20:12;;;;;;;29.35;10.90;;;;;;;5.97;78.66;101158.50;5135848;27;20034;-63
2021/04/10 02:22:39;;;;;;;30.52;10.10;;;;;;;5.93;78.56;101153.16;5136172;27;20027;-63
2021/04/10 02:25:06;;;;;;;28.52;10.65;;;;;;;5.86;78.90;101150.31;5135713;27;20118;-63
2021/04/10 02:27:31;;;;;;;30.70;9.85;;;;;;;5.81;78.45;101150.19;5135235;27;20035;-63
2021/04/10 02:29:58;;;;;;;28.63;9.85;;;;;;;5.81;78.72;101165.03;5134649;27;20099;-63
2021/04/10 02:32:28;;;;;;;26.02;9.13;;;;;;;5.79;78.64;101162.38;5134496;27;20051;-63
2021/04/10 02:35:09;;;;;;;28.23;8.75;;;;;;;5.75;78.70;101163.13;5135304;27;20015;-64
2021/04/10 02:37:36;;;;;;;26.50;8.93;;;;;;;5.74;78.42;101156.13;5135475;27;20028;-63
2021/04/10 02:40:04;;;;;;;29.67;9.85;;;;;;;5.72;79.22;101158.69;5135627;27;20351;-63
2021/04/10 02:42:31;;;;;;;28.48;8.90;;;;;;;5.70;79.47;101156.88;5133709;27;20544;-64
2021/04/10 02:44:59;;;;;;;25.67;9.00;;;;;;;5.71;79.30;101150.78;5135485;27;20038;-63
2021/04/10 02:47:27;;;;;;;26.80;8.43;;;;;;;5.74;78.90;101161.38;5135908;27;20020;-63
2021/04/10 02:49:56;;;;;;;28.80;8.90;;;;;;;5.72;78.67;101160.41;5134792;27;20023;-64
2021/04/10 02:52:39;;;;;;;28.55;9.45;;;;;;;5.73;78.15;101162.19;5137958;27;20015;-63
2021/04/10 02:55:07;;;;;;;27.70;9.20;;;;;;;5.68;78.87;101163.78;5134289;27;20377;-63
2021/04/10 02:57:33;;;;;;;29.30;9.15;;;;;;;5.69;78.96;101165.56;5134811;27;20494;-63
2021/04/10 03:00:01;;;;;;;28.80;9.00;;;;;;;5.66;79.23;101168.09;5134435;27;20466;-63
2021/04/10 03:02:27;;;;;;;30.33;9.13;;;;;;;5.62;79.18;101171.47;5134924;27;20023;-63
2021/04/10 03:04:53;;;;;;;26.90;8.75;;;;;;;5.62;79.54;101168.84;5135380;27;20440;-63
2021/04/10 03:07:19;;;;;;;29.08;9.20;;;;;;;5.57;79.45;101171.34;5134557;27;20030;-63
2021/04/10 03:09:46;;;;;;;29.55;8.82;;;;;;;5.55;79.48;101171.31;5133650;27;20436;-63
2021/04/10 03:12:14;;;;;;;27.55;8.90;;;;;;;5.55;79.83;101173.94;5133568;27;20369;-63
2021/04/10 03:14:40;;;;;;;29.65;8.82;;;;;;;5.54;79.44;101176.50;5134966;27;20023;-63
2021/04/10 03:17:06;;;;;;;28.15;9.18;;;;;;;5.50;79.74;101177.25;5134707;27;20052;-63
2021/04/10 03:19:35;;;;;;;26.73;8.40;;;;;;;5.49;79.92;101168.50;5134284;27;20027;-65
2021/04/10 03:22:00;;;;;;;28.38;8.98;;;;;;;5.48;79.90;101166.72;5134136;27;20128;-64
2021/04/10 03:24:26;;;;;;;27.92;8.88;;;;;;;5.44;80.19;101170.06;5134041;27;20198;-65
2021/04/10 03:26:52;;;;;;;29.45;8.90;;;;;;;5.45;80.30;101173.63;5134660;27;20057;-65
2021/04/10 03:29:19;;;;;;;29.02;9.02;;;;;;;5.44;80.02;101179.69;5134160;27;20034;-65
2021/04/10 03:31:45;;;;;;;27.60;8.68;;;;;;;5.44;80.04;101188.44;5134740;27;20030;-65
2021/04/10 03:34:11;;;;;;;27.27;8.75;;;;;;;5.45;80.36;101184.97;5134765;27;20091;-65
2021/04/10 03:36:36;;;;;;;27.48;8.85;;;;;;;5.44;80.14;101180.56;5133569;27;20073;-64
2021/04/10 03:39:02;;;;;;;27.70;8.50;;;;;;;5.41;80.25;101175.22;5133556;27;20030;-64
2021/04/10 03:41:28;;;;;;;28.90;9.13;;;;;;;5.45;80.51;101184.09;5132282;27;20023;-66
2021/04/10 03:43:53;;;;;;;26.60;8.40;;;;;;;5.46;80.24;101184.16;5134546;27;20031;-63
2021/04/10 03:46:18;;;;;;;27.52;8.75;;;;;;;5.47;79.66;101188.53;5134312;27;20113;-63
2021/04/10 03:48:44;;;;;;;25.92;8.05;;;;;;;5.46;79.68;101176.28;5133826;27;20031;-63
2021/04/10 03:51:09;;;;;;;27.10;8.23;;;;;;;5.45;79.64;101190.22;5134076;27;20066;-64
2021/04/10 03:53:34;;;;;;;26.85;8.50;;;;;;;5.43;79.80;101175.28;5134232;27;20027;-64
2021/04/10 03:56:00;;;;;;;31.10;8.50;;;;;;;5.41;79.64;101191.84;5134390;27;20142;-62
2021/04/10 03:58:25;;;;;;;25.73;7.95;;;;;;;5.39;79.41;101190.03;5133476;27;20039;-64
2021/04/10 04:00:50;;;;;;;27.30;8.15;;;;;;;5.36;79.62;101189.94;5133183;27;20053;-63
2021/04/10 04:03:16;;;;;;;26.42;8.20;;;;;;;5.35;79.48;101183.78;5133439;27;20027;-63
2021/04/10 04:05:42;;;;;;;29.08;8.50;;;;;;;5.35;79.59;101194.28;5133666;27;20035;-63
2021/04/10 04:08:07;;;;;;;29.42;8.52;;;;;;;5.35;79.87;101191.66;5133668;27;20019;-63
2021/04/10 04:10:32;;;;;;;25.10;7.97;;;;;;;5.35;80.07;101193.41;5133838;27;20023;-63
2021/04/10 04:12:58;;;;;;;27.48;8.40;;;;;;;5.35;79.66;101194.28;5133502;27;20098;-63
2021/04/10 04:15:23;;;;;;;26.38;8.20;;;;;;;5.33;79.87;101195.06;5133289;27;20019;-63
2021/04/10 04:17:48;;;;;;;25.25;8.18;;;;;;;5.31;79.95;101196.78;5133318;27;20035;-63
2021/04/10 04:20:14;;;;;;;28.30;8.20;;;;;;;5.30;80.36;101193.28;5133356;27;20058;-62
2021/04/10 04:22:39;;;;;;;28.23;8.00;;;;;;;5.30;79.78;101193.28;5133517;27;20030;-63
2021/04/10 04:25:07;;;;;;;26.77;7.90;;;;;;;5.30;79.95;101197.59;5133272;27;20039;-64
2021/04/10 04:27:34;;;;;;;26.98;8.40;;;;;;;5.27;80.11;101198.41;5133345;27;20068;-62
2021/04/10 04:30:01;;;;;;;26.88;8.18;;;;;;;5.24;80.01;101199.19;5132563;27;20066;-64
2021/04/10 04:32:27;;;;;;;25.38;7.90;;;;;;;5.24;80.41;101201.81;5133132;27;20043;-63
2021/04/10 04:34:52;;;;;;;27.65;8.68;;;;;;;5.22;80.08;101195.63;5132113;27;20534;-64
2021/04/10 04:37:17;;;;;;;26.48;8.18;;;;;;;5.20;80.33;101205.19;5133632;27;20055;-65
2021/04/10 04:39:43;;;;;;;26.95;8.10;;;;;;;5.17;80.24;101201.56;5132738;27;20038;-65
2021/04/10 04:42:08;;;;;;;28.02;8.25;;;;;;;5.17;80.44;101199.84;5131266;27;20031;-65
2021/04/10 04:44:34;;;;;;;27.35;7.97;;;;;;;5.19;80.48;101211.25;5133135;27;20080;-63
2021/04/10 04:46:59;;;;;;;28.98;8.15;;;;;;;5.16;79.99;101208.53;5133036;27;20473;-63
2021/04/10 04:49:24;;;;;;;29.35;9.00;;;;;;;5.12;80.26;101198.78;5132549;27;20106;-63
2021/04/10 04:51:52;;;;;;;27.42;8.88;;;;;;;5.11;80.17;101207.53;5132698;27;20027;-63
2021/04/10 04:54:18;;;;;;;26.63;8.45;;;;;;;5.10;80.28;101208.34;5132395;27;20031;-63
2021/04/10 04:56:43;;;;;;;29.38;9.32;;;;;;;5.10;80.56;101213.59;5133310;27;20030;-63
2021/04/10 04:59:08;;;;;;;25.48;8.75;;;;;;;5.10;80.70;101213.59;5132787;27;20030;-63
2021/04/10 05:01:34;;;;;;;27.17;8.18;;;;;;;5.11;80.36;101217.09;5132695;27;20386;-63
2021/04/10 05:04:00;;;;;;;28.42;8.52;;;;;;;5.10;80.59;101203.09;5132780;27;20374;-63
2021/04/10 05:06:25;;;;;;;26.55;8.05;;;;;;;5.07;80.96;101208.25;5131970;27;20130;-63
2021/04/10 05:08:50;;;;;;;27.77;7.90;;;;;;;5.03;80.76;101215.09;5132272;27;20099;-62
2021/04/10 05:11:15;;;;;;;25.58;7.60;;;;;;;5.05;81.13;101210.84;5132602;27;20368;-62
2021/04/10 05:13:41;;;;;;;27.35;8.40;;;;;;;5.06;80.76;101212.59;5132676;27;20031;-62
2021/04/10 05:16:07;;;;;;;27.63;7.57;;;;;;;5.05;80.51;101204.69;5132430;27;20470;-64
2021/04/10 05:18:32;;;;;;;26.02;7.90;;;;;;;5.05;80.50;101215.16;5132169;27;20023;-62
2021/04/10 05:20:57;;;;;;;28.85;8.63;;;;;;;5.02;81.11;101218.59;5131461;27;20474;-63
2021/04/10 05:23:24;;;;;;;26.55;7.40;;;;;;;5.00;81.36;101208.91;5132102;27;20023;-63
2021/04/10 05:25:50;;;;;;;25.63;7.93;;;;;;;4.99;81.68;101217.59;5132540;27;20045;-63
2021/04/10 05:28:16;;;;;;;28.02;8.40;;;;;;;5.02;81.47;101221.22;5131913;27;20039;-63
2021/04/10 05:30:41;;;;;;;27.80;8.27;;;;;;;5.03;80.86;101233.44;5131285;27;20015;-62
2021/04/10 05:33:07;;;;;;;25.60;8.05;;;;;;;5.06;81.25;101232.66;5131782;27;20383;-63
2021/04/10 05:35:33;;;;;;;26.85;7.90;;;;;;;5.07;80.98;101227.47;5130712;27;20023;-65
2021/04/10 05:37:58;;;;;;;26.58;8.20;;;;;;;5.11;80.82;101232.81;5132721;27;20038;-65
2021/04/10 05:40:24;;;;;;;27.67;8.18;;;;;;;5.14;80.67;101236.44;5132088;27;20504;-64
2021/04/10 05:42:49;;;;;;;28.27;8.40;;;;;;;5.17;80.75;101240.88;5132106;28;20477;-66
2021/04/10 05:45:14;;;;;;;27.95;7.78;;;;;;;5.23;80.45;101248.97;5131584;27;20039;-65
2021/04/10 05:47:41;;;;;;;25.98;8.02;;;;;;;5.28;79.98;101249.09;5131657;28;20020;-65
2021/04/10 05:50:07;;;;;;;26.85;7.90;;;;;;;5.32;80.14;101251.88;5131740;27;20023;-65
2021/04/10 05:52:34;;;;;;;25.05;8.40;;;;;;;5.36;80.04;101245.00;5131902;27;20517;-65
2021/04/10 05:55:00;;;;;;;28.38;8.50;;;;;;;5.36;80.41;101243.28;5132171;27;20358;-65
2021/04/10 05:57:25;;;;;;;27.63;8.95;;;;;;;5.38;79.94;101243.31;5132014;27;20037;-66
2021/04/10 05:59:51;;;;;;;27.95;8.80;;;;;;;5.40;79.65;101236.38;5131178;28;20023;-65
2021/04/10 06:02:16;;;;;;;27.00;9.10;;;;;;;5.44;79.19;101247.88;5130919;27;20476;-65
2021/04/10 06:04:41;;;;;;;27.08;9.00;;;;;;;5.48;79.76;101245.38;5131767;28;20038;-63
2021/04/10 06:07:07;;;;;;;28.85;9.50;;;;;;;5.52;79.07;101256.84;5132166;27;20102;-63
2021/04/10 06:09:32;;;;;;;28.65;9.82;;;;;;;5.56;79.45;101249.16;5132116;27;20020;-64
2021/04/10 06:11:57;;;;;;;31.27;10.55;;;;;;;5.60;79.05;101247.50;5131788;27;20415;-63
2021/04/10 06:14:23;;;;;;;30.83;9.93;;;;;;;5.64;78.78;101253.75;5131761;27;20553;-65
2021/04/10 06:16:52;;;;;;;29.70;11.15;;;;;;;5.71;78.57;101255.72;5131295;28;20027;-65
2021/04/10 06:19:19;;;;;;;29.30;11.20;;;;;;;5.70;78.70;101253.94;5131722;27;20051;-65
2021/04/10 06:21:44;;;;;;;29.73;11.25;;;;;;;5.75;78.89;101258.47;5131951;27;20720;-65
2021/04/10 06:24:13;;;;;;;29.65;10.75;;;;;;;5.79;79.28;101264.69;5131967;27;20024;-64
2021/04/10 06:26:39;;;;;;;30.08;9.45;;;;;;;5.85;78.07;101258.75;5132008;27;20101;-65
2021/04/10 06:29:04;;;;;;;28.00;10.90;;;;;;;5.82;78.36;101266.53;5130827;27;20027;-66
2021/04/10 06:31:30;;;;;;;30.60;11.30;;;;;;;5.84;78.49;101265.72;5131176;27;20027;-66
2021/04/10 06:33:55;;;;;;;32.38;11.48;;;;;;;5.88;78.52;101267.63;5131661;28;20051;-66
2021/04/10 06:36:20;;;;;;;27.98;10.98;;;;;;;5.93;78.30;101273.00;5132064;27;20439;-65
2021/04/10 06:38:46;;;;;;;28.48;11.43;;;;;;;5.93;78.02;101267.75;5131478;27;20418;-66
2021/04/10 06:41:13;;;;;;;27.73;11.77;;;;;;;5.97;78.02;101263.47;5130972;28;20019;-66
2021/04/10 06:43:41;;;;;;;29.60;11.77;;;;;;;6.01;77.94;101271.50;5131272;27;20060;-66
2021/04/10 06:46:07;;;;;;;29.42;11.25;;;;;;;6.04;78.08;101270.72;5129703;27;20099;-65
2021/04/10 06:48:35;;;;;;;31.50;12.30;;;;;;;6.05;78.04;101275.13;5134533;27;20023;-66
2021/04/10 06:51:01;;;;;;;28.42;10.43;;;;;;;6.06;77.61;101272.53;5135301;27;20098;-66
2021/04/10 06:53:29;;;;;;;30.48;12.05;;;;;;;6.02;78.51;101272.41;5133054;27;20016;-65
2021/04/10 06:55:58;;;;;;;28.38;11.95;;;;;;;6.05;77.86;101273.38;5134655;27;20114;-65
2021/04/10 06:58:39;;;;;;;31.08;11.98;;;;;;;6.09;78.42;101277.00;5134455;27;20052;-65
2021/04/10 07:01:05;;;;;;;32.53;12.20;;;;;;;6.19;77.33;101281.69;5133368;27;20470;-66
2021/04/10 07:03:31;;;;;;;29.67;11.65;;;;;;;6.23;77.38;101283.56;5135100;27;20026;-65
2021/04/10 07:05:56;;;;;;;29.25;12.40;;;;;;;6.24;77.37;101281.81;5135334;27;20381;-66
2021/04/10 07:08:24;;;;;;;30.58;12.32;;;;;;;6.24;76.97;101287.06;5134128;27;20023;-66
2021/04/10 07:10:50;;;;;;;31.88;12.23;;;;;;;6.17;76.61;101290.34;5133705;27;20031;-67
2021/04/10 07:13:17;;;;;;;32.15;14.02;;;;;;;6.08;77.55;101294.47;5134710;27;20031;-65
2021/04/10 07:15:42;;;;;;;32.95;13.57;;;;;;;6.11;77.13;101294.56;5134770;27;20069;-65
2021/04/10 07:18:07;;;;;;;30.60;12.40;;;;;;;6.09;77.21;101293.63;5134819;27;20469;-65
2021/04/10 07:20:34;;;;;;;29.38;11.85;;;;;;;6.05;77.16;101293.50;5135219;27;20023;-66
2021/04/10 07:23:05;;;;;;;32.30;13.10;;;;;;;6.04;77.68;101299.59;5133469;27;20052;-66
2021/04/10 07:25:33;;;;;;;29.55;12.75;;;;;;;6.09;78.00;101301.50;5134133;27;20035;-67
2021/04/10 07:28:28;;;;;;;29.55;12.95;;;;;;;6.17;77.55;101299.09;5134652;27;20047;-65
2021/04/10 07:31:03;;;;;;;32.97;12.70;;;;;;;6.13;77.63;101305.13;5128165;27;20150;-65
2021/04/10 07:33:31;;;;;;;30.30;13.02;;;;;;;6.15;77.64;101306.06;5132442;27;20386;-65
2021/04/10 07:35:58;;;;;;;33.30;12.57;;;;;;;6.19;77.71;101307.94;5133941;27;20453;-66
2021/04/10 07:38:29;;;;;;;33.53;12.73;;;;;;;6.26;76.77;101307.28;5133452;27;20026;-65
2021/04/10 07:40:55;;;;;;;34.55;12.57;;;;;;;6.23;76.99;101307.19;5131864;27;20020;-64
2021/04/10 07:43:31;;;;;;;30.08;12.82;;;;;;;6.19;76.61;101300.06;5134540;27;20458;-65
2021/04/10 07:46:25;;;;;;;32.47;13.05;;;;;;;6.17;77.20;101291.22;5131862;27;20034;-65
2021/04/10 07:49:12;;;;;;;30.77;12.55;;;;;;;6.22;77.47;101294.88;5133583;27;20023;-64
2021/04/10 07:51:52;;;;;;;28.90;12.77;;;;;;;6.30;77.13;101288.97;5132414;27;20537;-64
2021/04/10 07:54:26;;;;;;;33.10;13.25;;;;;;;6.45;76.68;101290.31;5133765;27;20358;-65
2021/04/10 07:57:07;;;;;;;30.67;11.40;;;;;;;6.61;75.42;101285.47;5130335;27;20076;-64
2021/04/10 07:59:56;;;;;;;29.95;12.35;;;;;;;6.65;75.76;101289.06;5131159;27;20030;-63
2021/04/10 08:02:23;;;;;;;29.35;11.75;;;;;;;6.74;75.18;101289.31;5133083;27;20481;-64
2021/04/10 08:04:57;;;;;;;30.38;12.48;;;;;;;6.79;74.71;101296.47;5133133;27;20420;-64
2021/04/10 08:07:33;;;;;;;32.97;12.52;;;;;;;6.86;74.76;101291.38;5134061;27;20023;-64
2021/04/10 08:09:58;;;;;;;31.30;12.77;;;;;;;6.82;74.64;101300.06;5130833;27;20027;-64
2021/04/10 08:12:35;;;;;;;31.88;12.85;;;;;;;6.79;73.92;101295.59;5133800;27;20355;-65
2021/04/10 08:15:03;;;;;;;27.40;12.52;;;;;;;6.74;74.25;101297.19;5130911;27;20019;-64
2021/04/10 08:17:34;;;;;;;30.55;12.90;;;;;;;6.72;73.94;101298.91;5133060;27;20080;-64
2021/04/10 08:20:26;;;;;;;32.50;12.70;;;;;;;6.81;73.61;101304.41;5130799;27;20030;-65
2021/04/10 08:22:52;;;;;;;30.55;12.10;;;;;;;6.54;74.45;101305.44;5133661;27;20472;-64
2021/04/10 08:25:29;;;;;;;27.63;11.45;;;;;;;6.54;74.11;101305.44;5133125;27;20034;-64
2021/04/10 08:27:56;;;;;;;28.70;12.13;;;;;;;6.57;73.73;101304.63;5132640;27;20035;-65
2021/04/10 08:30:22;;;;;;;30.15;12.55;;;;;;;6.54;74.28;101310.69;5130967;27;20020;-65
2021/04/10 08:32:47;;;;;;;33.13;12.43;;;;;;;6.60;74.64;101310.84;5133307;27;20106;-65
2021/04/10 08:35:13;;;;;;;28.33;12.15;;;;;;;6.61;74.63;101317.91;5132689;27;20080;-64
2021/04/10 08:37:41;;;;;;;29.90;11.63;;;;;;;6.66;74.61;101320.66;5133264;27;20373;-64
2021/04/10 08:40:08;;;;;;;31.55;12.38;;;;;;;6.66;74.08;101311.88;5133198;27;20102;-62
2021/04/10 08:42:35;;;;;;;30.23;11.90;;;;;;;6.61;74.13;101309.09;5132429;27;20027;-62
2021/04/10 08:45:01;;;;;;;30.02;10.98;;;;;;;6.68;74.14;101308.44;5134432;27;20051;-63
2021/04/10 08:47:27;;;;;;;30.10;11.95;;;;;;;6.71;74.05;101307.63;5132986;27;20076;-66
2021/04/10 08:49:55;;;;;;;32.33;12.30;;;;;;;6.80;74.04;101302.63;5131470;27;20033;-62
2021/04/10 08:52:28;;;;;;;28.95;11.50;;;;;;;6.99;73.65;101304.03;5132667;27;20023;-63
2021/04/10 08:54:53;;;;;;;28.55;11.68;;;;;;;7.24;73.83;101305.53;5132707;27;20538;-63
2021/04/10 08:57:19;;;;;;;28.52;11.98;;;;;;;7.36;73.40;101301.44;5132257;27;20023;-63
2021/04/10 08:59:46;;;;;;;30.60;12.10;;;;;;;7.48;72.69;101304.34;5132397;27;20050;-64
2021/04/10 09:02:21;;;;;;;28.23;11.88;;;;;;;7.58;73.04;101295.84;5131812;27;20031;-64
2021/04/10 09:04:52;;;;;;;29.70;12.18;;;;;;;7.76;72.75;101297.13;5132331;27;20031;-64
2021/04/10 09:07:18;;;;;;;30.15;12.10;;;;;;;7.87;73.76;101302.66;5132887;27;20031;-65
2021/04/10 09:09:47;;;;;;;30.25;12.20;;;;;;;7.79;72.40;101306.00;5130812;27;20021;-64
2021/04/10 09:12:22;;;;;;;30.00;12.63;;;;;;;7.66;72.58;101307.44;5130482;27;20057;-63
2021/04/10 09:14:49;;;;;;;29.02;12.02;;;;;;;7.59;73.20;101315.16;5131963;27;20072;-64
2021/04/10 09:17:14;;;;;;;27.63;12.25;;;;;;;7.47;74.63;101302.56;5132598;27;20023;-63
2021/04/10 09:19:40;;;;;;;30.95;12.50;;;;;;;7.39;74.03;101304.16;5132143;27;20023;-64
2021/04/10 09:22:05;;;;;;;28.05;11.82;;;;;;;7.33;75.10;101307.50;5133641;27;20107;-64
2021/04/10 09:24:37;;;;;;;29.30;12.00;;;;;;;7.27;74.77;101305.59;5128345;27;20143;-64
2021/04/10 09:27:22;;;;;;;28.90;12.18;;;;;;;7.16;75.06;101301.81;5131199;27;20027;-65
2021/04/10 09:29:49;;;;;;;28.70;11.90;;;;;;;7.08;75.65;101306.88;5131425;27;20023;-64
2021/04/10 09:32:27;;;;;;;30.40;13.18;;;;;;;7.10;75.43;101315.69;5131568;27;20031;-63
2021/04/10 09:35:01;;;;;;;31.88;12.82;;;;;;;7.07;76.51;101317.34;5128756;27;20096;-64
2021/04/10 09:37:26;;;;;;;29.77;12.75;;;;;;;7.04;78.13;101307.66;5131923;27;20038;-64
2021/04/10 09:40:03;;;;;;;28.77;12.35;;;;;;;7.03;78.39;101310.22;5131434;27;20030;-64
2021/04/10 09:42:38;;;;;;;30.15;12.10;;;;;;;7.03;77.56;101305.84;5127502;28;20054;-64
2021/04/10 09:45:18;;;;;;;30.73;13.38;;;;;;;6.91;77.42;101309.06;5131730;27;20084;-64
2021/04/10 09:47:56;;;;;;;30.35;12.75;;;;;;;6.86;78.25;101305.44;5132226;27;20027;-64
2021/04/10 09:50:24;;;;;;;29.73;12.65;;;;;;;6.90;78.14;101296.78;5130669;28;20122;-65
2021/04/10 09:53:16;;;;;;;31.95;14.35;;;;;;;6.98;78.83;101297.84;5131675;27;20027;-63
2021/04/10 09:55:50;;;;;;;31.85;13.82;;;;;;;7.15;78.02;101292.16;5130061;27;20030;-63
2021/04/10 09:58:19;;;;;;;34.35;14.27;;;;;;;7.28;78.12;101302.13;5131781;27;20020;-63
2021/04/10 10:00:48;;;;;;;36.05;14.52;;;;;;;7.41;78.70;101297.16;5131021;28;20034;-63
2021/04/10 10:03:15;;;;;;;32.13;13.25;;;;;;;7.64;78.04;101301.22;5131869;27;20026;-62
2021/04/10 10:05:43;;;;;;;31.15;14.15;;;;;;;7.82;78.56;101291.97;5130912;27;20066;-63
2021/04/10 10:08:10;;;;;;;33.17;13.68;;;;;;;7.87;76.78;101290.34;5132188;27;20022;-63
2021/04/10 10:10:48;;;;;;;32.05;13.45;;;;;;;7.90;76.17;101292.19;5129474;28;20023;-63
2021/04/10 10:13:18;;;;;;;32.55;13.52;;;;;;;7.78;76.40;101288.41;5130134;28;20023;-63
2021/04/10 10:15:45;;;;;;;31.02;13.88;;;;;;;7.77;76.05;101293.63;5131890;27;20084;-65
2021/04/10 10:18:21;;;;;;;31.95;14.30;;;;;;;7.72;76.55;101288.28;5130908;28;20035;-65
2021/04/10 10:20:52;;;;;;;31.00;13.00;;;;;;;7.81;76.52;101288.47;5132879;27;20008;-64
2021/04/10 10:23:18;;;;;;;33.38;14.40;;;;;;;7.90;77.64;101284.28;5135757;27;20026;-64
2021/04/10 10:25:43;;;;;;;31.95;13.77;;;;;;;7.92;76.21;101279.94;5135782;27;20027;-66
2021/04/10 10:28:16;;;;;;;33.00;14.40;;;;;;;8.03;77.64;101278.44;5135997;27;20023;-65
2021/04/10 10:30:43;;;;;;;29.38;12.15;;;;;;;8.05;76.07;101265.28;5133238;27;20076;-63
2021/04/10 10:33:08;;;;;;;33.90;14.75;;;;;;;7.98;76.44;101269.53;5134222;27;20020;-64
2021/04/10 10:35:34;;;;;;;33.00;15.18;;;;;;;7.96;75.83;101258.09;5135822;27;20030;-64
2021/04/10 10:38:07;;;;;;;34.03;15.02;;;;;;;8.01;76.55;101254.69;5135999;27;20011;-64
2021/04/10 10:40:34;;;;;;;35.15;15.85;;;;;;;7.97;77.07;101255.47;5135014;27;20023;-64
2021/04/10 10:43:08;;;;;;;34.03;15.95;;;;;;;7.99;77.56;101256.41;5133628;27;20035;-64
2021/04/10 10:45:53;;;;;;;33.92;14.38;;;;;;;8.00;76.61;101250.28;5132497;27;20031;-65
2021/04/10 10:48:33;;;;;;;34.95;16.75;;;;;;;7.76;77.80;101249.75;5133891;27;20068;-65
2021/04/10 10:50:58;;;;;;;36.20;17.65;;;;;;;7.64;78.37;101245.09;5133617;27;20023;-65
2021/04/10 10:53:26;;;;;;;35.63;15.93;;;;;;;7.58;78.50;101239.69;5135521;27;20546;-64
2021/04/10 10:55:57;;;;;;;39.85;18.67;;;;;;;7.49;79.74;101253.53;5135414;27;20106;-65
2021/04/10 10:58:23;;;;;;;36.80;18.55;;;;;;;7.46;79.75;101240.31;5134665;27;20503;-65
2021/04/10 11:00:50;;;;;;;33.85;16.88;;;;;;;7.42;78.63;101233.19;5134466;27;20472;-66
2021/04/10 11:03:22;;;;;;;38.28;18.38;;;;;;;7.35;79.92;101233.91;5134503;27;20385;-64
2021/04/10 11:05:51;;;;;;;36.05;18.92;;;;;;;7.25;80.21;101225.81;5135028;27;20027;-64
2021/04/10 11:08:21;;;;;;;38.97;20.48;;;;;;;7.17;80.80;101224.72;5133692;27;20023;-65
2021/04/10 11:10:48;;;;;;;38.28;18.38;;;;;;;7.09;80.50;101224.53;5134637;27;20465;-66
2021/04/10 11:13:14;;;;;;;37.42;19.05;;;;;;;6.96;80.85;101218.09;5135129;27;20031;-64
2021/04/10 11:15:43;;;;;;;39.72;19.15;;;;;;;6.83;81.37;101217.72;5134849;27;20023;-66
2021/04/10 11:18:44;;;;;;;37.38;18.42;;;;;;;6.78;81.38;101215.84;5134770;27;20354;-66
2021/04/10 11:21:31;;;;;;;42.63;21.02;;;;;;;6.51;83.49;101204.63;5048986;28;20032;-65
2021/04/10 11:24:01;;;;;;;39.50;20.13;;;;;;;6.42;84.42;101203.56;5045163;28;20430;-66
2021/04/10 11:26:55;;;;;;;40.50;21.65;;;;;;;6.42;84.26;101202.63;5047448;28;20485;-63